Time;durP1;ratioP1;P1;durP2;ratioP2;P2;SDS_P1;SDS_P2;PMS_P1;PMS_P2;Temp;Humidity;BMP_temperature;BMP_pressure;BME280_temperature;BME280_humidity;BME280_pressure;Samples;Min_cycle;Max_cycle;Signal;HPM_P1;HPM_P2
2022/01/22 00:01:14;;;;;;;3.30;1.93;;;;;;;;;;5134068;28;20440;-70
2022/01/22 00:03:41;;;;;;;2.10;1.60;;;;;;;;;;5133436;27;21016;-70
2022/01/22 00:06:08;;;;;;;2.60;2.13;;;;;;;;;;5133782;28;20465;-70
2022/01/22 00:08:35;;;;;;;5.83;1.90;;;;;;;;;;5133702;27;20452;-70
2022/01/22 00:11:04;;;;;;;4.00;2.50;;;;;;;;;;5133769;28;20544;-70
2022/01/22 00:16:16;;;;;;;4.10;2.57;;;;;;;;;;5133816;28;20493;-70
2022/01/22 00:18:43;;;;;;;3.53;1.77;;;;;;;;;;5133549;28;20870;-70
2022/01/22 00:21:11;;;;;;;6.37;2.20;;;;;;;;;;5133825;27;20444;-70
2022/01/22 00:23:43;;;;;;;2.93;2.50;;;;;;;;;;5133471;28;20480;-69
2022/01/22 00:26:12;;;;;;;3.00;2.20;;;;;;;;;;5132872;28;20473;-70
2022/01/22 00:28:39;;;;;;;3.20;1.77;;;;;;;;;;5133640;27;20448;-70
2022/01/22 00:31:06;;;;;;;4.40;2.10;;;;;;;;;;5134915;27;20482;-70
2022/01/22 00:33:33;;;;;;;2.43;2.00;;;;;;;;;;5137237;27;20451;-70
2022/01/22 00:36:00;;;;;;;8.33;1.97;;;;;;;;;;5137366;27;20461;-70
2022/01/22 00:38:27;;;;;;;2.23;1.77;;;;;;;;;;5137378;27;20448;-70
2022/01/22 00:40:54;;;;;;;2.50;1.70;;;;;;;;;;5137450;27;20487;-70
2022/01/22 00:43:23;;;;;;;7.60;1.93;;;;;;;;;;5137092;27;20992;-69
2022/01/22 00:45:50;;;;;;;4.30;1.97;;;;;;;;;;5136999;27;20472;-70
2022/01/22 00:48:18;;;;;;;5.17;2.13;;;;;;;;;;5137290;27;20808;-70
2022/01/22 00:50:45;;;;;;;2.50;1.63;;;;;;;;;;5137291;27;20440;-70
2022/01/22 00:53:12;;;;;;;2.37;1.50;;;;;;;;;;5137041;27;20469;-70
2022/01/22 00:55:39;;;;;;;2.43;1.50;;;;;;;;;;5136632;27;20467;-69
2022/01/22 00:58:07;;;;;;;2.33;1.93;;;;;;;;;;5137112;27;20445;-69
2022/01/22 01:00:36;;;;;;;2.13;1.40;;;;;;;;;;5137003;27;20437;-69
2022/01/22 01:03:03;;;;;;;2.87;1.73;;;;;;;;;;5137031;27;20492;-70
2022/01/22 01:05:31;;;;;;;2.90;1.63;;;;;;;;;;5136642;27;20473;-70
2022/01/22 01:07:58;;;;;;;6.93;1.87;;;;;;;;;;5136776;27;20449;-70
2022/01/22 01:10:25;;;;;;;1.50;1.20;;;;;;;;;;5136854;27;20452;-70
2022/01/22 01:12:52;;;;;;;6.13;1.93;;;;;;;;;;5136673;27;20505;-70
2022/01/22 01:15:36;;;;;;;8.77;2.10;;;;;;;;;;5136494;27;20885;-70
2022/01/22 01:32:10;;;;;;;3.10;1.23;;;;;;;;;;5136819;27;20939;-70
2022/01/22 01:34:57;;;;;;;5.80;2.37;;;;;;;;;;5072805;28;20470;-70
2022/01/22 01:37:24;;;;;;;3.07;1.90;;;;;;;;;;5073171;28;20500;-70
2022/01/22 01:39:58;;;;;;;3.13;2.00;;;;;;;;;;5101787;27;20510;-70
2022/01/22 01:42:33;;;;;;;3.70;2.47;;;;;;;;;;5135815;27;20537;-70
2022/01/22 01:45:03;;;;;;;2.13;1.90;;;;;;;;;;5136048;27;20466;-70
2022/01/22 01:47:31;;;;;;;3.13;2.00;;;;;;;;;;5136353;27;20641;-70
2022/01/22 01:49:59;;;;;;;4.43;2.10;;;;;;;;;;5136290;27;20888;-70
2022/01/22 01:52:35;;;;;;;5.67;2.67;;;;;;;;;;5135979;27;20964;-70
2022/01/22 01:55:08;;;;;;;7.97;2.50;;;;;;;;;;5135858;27;20523;-70
2022/01/22 01:57:42;;;;;;;2.57;2.10;;;;;;;;;;5135839;27;21003;-70
2022/01/22 02:00:15;;;;;;;4.70;2.37;;;;;;;;;;5135866;27;20489;-70
2022/01/22 02:02:42;;;;;;;2.73;2.20;;;;;;;;;;5135614;27;20572;-70
2022/01/22 02:05:12;;;;;;;6.00;2.70;;;;;;;;;;5135457;27;20477;-70
2022/01/22 02:07:41;;;;;;;8.53;3.77;;;;;;;;;;5135565;27;20515;-70
2022/01/22 02:10:12;;;;;;;8.60;2.47;;;;;;;;;;5135536;27;20455;-70
2022/01/22 02:23:50;;;;;;;2.90;2.40;;;;;;;;;;5135072;27;20568;-70
2022/01/22 02:26:18;;;;;;;4.47;2.33;;;;;;;;;;5134758;27;20495;-70
2022/01/22 02:28:48;;;;;;;6.17;4.40;;;;;;;;;;5135362;27;20940;-70
2022/01/22 02:31:22;;;;;;;7.63;3.67;;;;;;;;;;5135053;27;20979;-70
2022/01/22 02:33:55;;;;;;;3.60;2.63;;;;;;;;;;5134893;27;20819;-70
2022/01/22 02:36:28;;;;;;;9.23;3.50;;;;;;;;;;5135011;27;20487;-70
2022/01/22 02:39:02;;;;;;;5.40;2.70;;;;;;;;;;5135056;27;20509;-70
2022/01/22 02:41:29;;;;;;;4.53;2.60;;;;;;;;;;5135165;27;20447;-70
2022/01/22 02:43:57;;;;;;;5.67;3.27;;;;;;;;;;5134925;27;20484;-70
2022/01/22 02:46:25;;;;;;;4.90;2.50;;;;;;;;;;5134832;27;20504;-70
2022/01/22 02:48:54;;;;;;;5.90;3.70;;;;;;;;;;5134693;27;20505;-70
2022/01/22 02:51:21;;;;;;;7.80;3.63;;;;;;;;;;5134708;27;20510;-70
2022/01/22 02:53:53;;;;;;;3.53;2.30;;;;;;;;;;5133617;27;20454;-70
2022/01/22 02:56:21;;;;;;;11.93;3.43;;;;;;;;;;5134752;27;20512;-70
2022/01/22 02:58:48;;;;;;;14.33;3.83;;;;;;;;;;5134629;27;20548;-70
2022/01/22 03:01:17;;;;;;;5.87;2.77;;;;;;;;;;5134465;27;20463;-70
2022/01/22 03:03:44;;;;;;;6.17;4.07;;;;;;;;;;5134058;27;20584;-70
2022/01/22 03:06:11;;;;;;;4.30;3.10;;;;;;;;;;5134433;27;21012;-70
2022/01/22 03:08:40;;;;;;;6.37;2.83;;;;;;;;;;5134436;27;20452;-70
2022/01/22 03:11:18;;;;;;;7.80;3.87;;;;;;;;;;5134482;27;20548;-70
2022/01/22 03:16:49;;;;;;;5.97;2.70;;;;;;;;;;5134275;27;20441;-70
2022/01/22 03:19:30;;;;;;;4.73;3.23;;;;;;;;;;5134560;27;20826;-70
2022/01/22 03:22:11;;;;;;;5.10;4.07;;;;;;;;;;5134325;27;20448;-70
2022/01/22 03:27:26;;;;;;;6.53;3.23;;;;;;;;;;5134293;27;20470;-70
2022/01/22 03:29:53;;;;;;;9.73;3.70;;;;;;;;;;5134272;27;20822;-70
2022/01/22 03:32:21;;;;;;;3.10;1.93;;;;;;;;;;5134409;27;20916;-70
2022/01/22 03:34:56;;;;;;;11.00;5.13;;;;;;;;;;5133866;27;20832;-70
2022/01/22 03:37:24;;;;;;;9.77;3.50;;;;;;;;;;5133996;27;20448;-70
2022/01/22 03:39:51;;;;;;;10.77;4.37;;;;;;;;;;5133884;27;20467;-70
2022/01/22 03:42:18;;;;;;;9.80;3.47;;;;;;;;;;5133999;27;20441;-70
2022/01/22 03:44:47;;;;;;;7.20;3.67;;;;;;;;;;5133601;28;20495;-70
2022/01/22 03:47:14;;;;;;;10.17;3.63;;;;;;;;;;5133855;28;20464;-70
2022/01/22 03:49:41;;;;;;;6.73;2.53;;;;;;;;;;5133880;27;20464;-70
2022/01/22 03:52:09;;;;;;;3.83;2.80;;;;;;;;;;5133916;28;20519;-70
2022/01/22 03:54:36;;;;;;;4.50;4.07;;;;;;;;;;5133582;28;20444;-70
2022/01/22 03:57:03;;;;;;;6.03;3.03;;;;;;;;;;5133654;27;20468;-70
2022/01/22 03:59:31;;;;;;;3.43;2.60;;;;;;;;;;5133740;27;21096;-70
2022/01/22 04:04:46;;;;;;;3.20;2.57;;;;;;;;;;5134218;27;20501;-70
2022/01/22 04:09:58;;;;;;;7.77;3.10;;;;;;;;;;5137931;27;20439;-71
2022/01/22 04:12:33;;;;;;;4.80;2.60;;;;;;;;;;5137898;27;20459;-70
2022/01/22 04:15:03;;;;;;;7.03;2.57;;;;;;;;;;5137769;27;20505;-70
2022/01/22 04:24:49;;;;;;;5.10;3.13;;;;;;;;;;5138035;27;20444;-70
2022/01/22 04:26:04;;;;;;;6.63;3.20;;;;;;;;;;5137007;27;20987;-70
2022/01/22 04:28:31;;;;;;;6.20;3.47;;;;;;;;;;5137784;27;20972;-70
2022/01/22 04:30:58;;;;;;;3.87;3.23;;;;;;;;;;5137516;27;20460;-70
2022/01/22 04:33:27;;;;;;;3.97;2.90;;;;;;;;;;5137716;27;20440;-70
2022/01/22 04:35:54;;;;;;;5.30;3.20;;;;;;;;;;5137365;27;20460;-70
2022/01/22 04:38:21;;;;;;;4.10;3.63;;;;;;;;;;5137423;27;21012;-70
2022/01/22 04:40:48;;;;;;;2.80;2.50;;;;;;;;;;5137308;27;20452;-70
2022/01/22 04:43:15;;;;;;;4.77;2.53;;;;;;;;;;5137266;27;20488;-70
2022/01/22 04:45:52;;;;;;;3.80;3.00;;;;;;;;;;5137013;27;20492;-70
2022/01/22 04:48:39;;;;;;;4.40;3.23;;;;;;;;;;5137243;27;20454;-70
2022/01/22 04:56:37;;;;;;;5.40;2.53;;;;;;;;;;5136985;27;20455;-70
2022/01/22 04:59:04;;;;;;;9.87;3.93;;;;;;;;;;5137040;27;20815;-70
2022/01/22 05:01:32;;;;;;;3.07;2.50;;;;;;;;;;5137115;27;20824;-70
2022/01/22 05:03:59;;;;;;;6.03;2.97;;;;;;;;;;5136802;27;20852;-70
2022/01/22 05:06:29;;;;;;;3.77;2.73;;;;;;;;;;5136937;27;20472;-71
2022/01/22 05:08:57;;;;;;;8.87;3.60;;;;;;;;;;5137077;27;20873;-70
2022/01/22 05:11:24;;;;;;;10.90;2.80;;;;;;;;;;5136906;27;20949;-70
2022/01/22 05:13:51;;;;;;;6.80;2.97;;;;;;;;;;5136560;27;20444;-70
2022/01/22 05:16:19;;;;;;;2.50;2.00;;;;;;;;;;5135821;27;20480;-70
2022/01/22 05:18:52;;;;;;;3.50;2.40;;;;;;;;;;5136615;27;20499;-71
2022/01/22 05:21:20;;;;;;;2.83;2.10;;;;;;;;;;5136684;27;20950;-70
2022/01/22 05:23:50;;;;;;;8.03;2.57;;;;;;;;;;5136446;27;20891;-70
2022/01/22 05:26:48;;;;;;;4.80;2.30;;;;;;;;;;5136112;27;20464;-70
2022/01/22 05:29:23;;;;;;;6.73;3.13;;;;;;;;;;5136571;27;20453;-70
2022/01/22 05:37:31;;;;;;;3.80;2.70;;;;;;;;;;5073102;28;20428;-70
2022/01/22 05:40:00;;;;;;;3.37;2.10;;;;;;;;;;5121219;27;20885;-70
2022/01/22 05:42:27;;;;;;;4.77;3.23;;;;;;;;;;5136099;27;20455;-70
2022/01/22 05:44:54;;;;;;;6.47;4.93;;;;;;;;;;5135788;27;20485;-70
2022/01/22 05:47:25;;;;;;;4.90;3.87;;;;;;;;;;5136321;27;20488;-70
2022/01/22 05:49:53;;;;;;;6.87;4.57;;;;;;;;;;5136116;27;20506;-71
2022/01/22 05:52:27;;;;;;;3.83;3.23;;;;;;;;;;5136153;27;20821;-71
2022/01/22 05:55:13;;;;;;;5.80;3.47;;;;;;;;;;5135689;27;20452;-71
2022/01/22 06:00:26;;;;;;;7.77;3.63;;;;;;;;;;5136112;27;20428;-71
2022/01/22 06:02:53;;;;;;;4.60;2.70;;;;;;;;;;5135742;27;20969;-71
2022/01/22 06:05:21;;;;;;;10.40;4.33;;;;;;;;;;5135657;27;20931;-71
2022/01/22 06:07:48;;;;;;;4.50;3.47;;;;;;;;;;5135628;27;20452;-71
2022/01/22 06:10:17;;;;;;;10.33;3.80;;;;;;;;;;5135563;27;20433;-71
2022/01/22 06:12:58;;;;;;;4.50;3.17;;;;;;;;;;5135403;27;20456;-71
2022/01/22 06:15:25;;;;;;;6.63;4.13;;;;;;;;;;5135375;27;20468;-71
2022/01/22 06:17:52;;;;;;;5.10;3.80;;;;;;;;;;5135468;27;20460;-71
2022/01/22 06:20:19;;;;;;;6.17;3.87;;;;;;;;;;5135448;27;20449;-71
2022/01/22 06:22:46;;;;;;;12.20;5.60;;;;;;;;;;5135303;27;20463;-71
2022/01/22 06:25:14;;;;;;;8.40;5.23;;;;;;;;;;5134512;27;20868;-71
2022/01/22 06:27:41;;;;;;;5.33;3.07;;;;;;;;;;5135435;27;20452;-71
2022/01/22 06:30:11;;;;;;;9.90;5.60;;;;;;;;;;5135439;27;20949;-71
2022/01/22 06:32:38;;;;;;;10.17;4.33;;;;;;;;;;5135047;27;20464;-71
2022/01/22 06:35:06;;;;;;;4.90;3.77;;;;;;;;;;5134831;27;20769;-71
2022/01/22 06:37:33;;;;;;;8.13;4.23;;;;;;;;;;5135080;27;20467;-71
2022/01/22 06:42:45;;;;;;;5.67;3.83;;;;;;;;;;5134976;27;20420;-71
2022/01/22 06:45:13;;;;;;;10.00;5.00;;;;;;;;;;5134619;27;20492;-70
2022/01/22 06:47:41;;;;;;;6.20;3.67;;;;;;;;;;5134680;27;20449;-71
2022/01/22 06:50:09;;;;;;;4.90;4.07;;;;;;;;;;5134849;27;20444;-71
2022/01/22 06:52:37;;;;;;;6.07;4.23;;;;;;;;;;5134791;27;20457;-71
2022/01/22 06:55:05;;;;;;;7.10;3.20;;;;;;;;;;5134686;27;20489;-71
2022/01/22 06:57:32;;;;;;;5.03;3.90;;;;;;;;;;5134975;27;20929;-70
2022/01/22 06:59:59;;;;;;;7.60;4.30;;;;;;;;;;5134535;27;20448;-71
2022/01/22 07:02:28;;;;;;;8.87;5.17;;;;;;;;;;5134532;27;20823;-71
2022/01/22 07:04:55;;;;;;;8.00;3.80;;;;;;;;;;5134385;27;20486;-72
2022/01/22 07:07:22;;;;;;;7.33;5.03;;;;;;;;;;5134571;27;20445;-72
2022/01/22 07:09:50;;;;;;;7.17;3.73;;;;;;;;;;5134863;27;20453;-71
2022/01/22 07:12:17;;;;;;;9.83;5.13;;;;;;;;;;5134545;27;20452;-71
2022/01/22 07:14:48;;;;;;;8.23;5.63;;;;;;;;;;5134109;27;20445;-71
2022/01/22 07:17:15;;;;;;;8.13;5.97;;;;;;;;;;5134404;27;20559;-71
2022/01/22 07:19:44;;;;;;;9.77;6.90;;;;;;;;;;5134331;27;20455;-71
2022/01/22 07:22:32;;;;;;;7.70;4.63;;;;;;;;;;5134248;27;20486;-71
2022/01/22 07:25:00;;;;;;;5.60;4.20;;;;;;;;;;5133494;27;20492;-71
2022/01/22 07:27:27;;;;;;;8.83;5.13;;;;;;;;;;5134140;27;20448;-72
2022/01/22 07:29:54;;;;;;;10.80;6.13;;;;;;;;;;5134170;27;20452;-71
2022/01/22 07:32:29;;;;;;;7.07;3.70;;;;;;;;;;5134124;27;20463;-71
2022/01/22 07:34:58;;;;;;;7.67;4.53;;;;;;;;;;5134084;27;20476;-71
2022/01/22 07:37:25;;;;;;;10.53;6.00;;;;;;;;;;5134035;27;20452;-71
2022/01/22 07:39:52;;;;;;;8.30;4.20;;;;;;;;;;5133606;27;20452;-71
2022/01/22 07:42:20;;;;;;;5.87;4.50;;;;;;;;;;5133995;27;20449;-71
2022/01/22 07:44:47;;;;;;;7.63;5.57;;;;;;;;;;5133635;27;20488;-71
2022/01/22 07:47:14;;;;;;;10.43;5.27;;;;;;;;;;5134142;27;20981;-71
2022/01/22 07:49:41;;;;;;;12.00;6.00;;;;;;;;;;5133945;28;20452;-71
2022/01/22 07:52:10;;;;;;;8.33;6.23;;;;;;;;;;5134027;27;20942;-70
2022/01/22 07:54:37;;;;;;;11.57;5.43;;;;;;;;;;5133757;27;20445;-71
2022/01/22 07:57:04;;;;;;;8.30;6.07;;;;;;;;;;5133947;28;20465;-71
2022/01/22 07:59:32;;;;;;;9.53;6.50;;;;;;;;;;5133997;28;20453;-71
2022/01/22 08:01:59;;;;;;;7.60;5.37;;;;;;;;;;5134187;27;20486;-71
2022/01/22 08:04:27;;;;;;;12.07;5.43;;;;;;;;;;5133544;28;20488;-71
2022/01/22 08:06:54;;;;;;;13.40;6.77;;;;;;;;;;5133573;27;20477;-71
2022/01/22 08:09:23;;;;;;;10.10;5.60;;;;;;;;;;5133918;27;20449;-71
2022/01/22 08:11:50;;;;;;;7.97;4.17;;;;;;;;;;5133609;27;20448;-71
2022/01/22 08:14:17;;;;;;;15.90;5.90;;;;;;;;;;5133721;28;20933;-71
2022/01/22 08:16:46;;;;;;;7.47;4.97;;;;;;;;;;5133696;28;20481;-73
2022/01/22 08:19:14;;;;;;;8.33;5.70;;;;;;;;;;5133795;28;20445;-71
2022/01/22 08:21:41;;;;;;;7.03;4.70;;;;;;;;;;5133656;27;20949;-71
2022/01/22 08:24:09;;;;;;;12.40;6.07;;;;;;;;;;5132920;28;20480;-71
2022/01/22 08:26:42;;;;;;;8.57;6.70;;;;;;;;;;5133552;27;21000;-71
2022/01/22 08:29:09;;;;;;;8.77;5.03;;;;;;;;;;5133953;28;20441;-71
2022/01/22 08:37:03;;;;;;;9.20;6.30;;;;;;;;;;5133656;28;20490;-71
2022/01/22 08:39:30;;;;;;;11.00;6.87;;;;;;;;;;5133583;27;20444;-71
2022/01/22 08:41:58;;;;;;;13.70;8.63;;;;;;;;;;5133378;27;20445;-71
2022/01/22 08:44:25;;;;;;;7.70;6.40;;;;;;;;;;5133179;27;20495;-71
2022/01/22 08:46:52;;;;;;;12.20;6.70;;;;;;;;;;5133422;28;20465;-71
2022/01/22 08:49:19;;;;;;;10.23;6.43;;;;;;;;;;5133587;27;20467;-72
2022/01/22 08:51:47;;;;;;;8.73;6.37;;;;;;;;;;5134232;27;20456;-71
2022/01/22 08:54:14;;;;;;;16.17;7.00;;;;;;;;;;5137054;27;20466;-71
2022/01/22 08:56:41;;;;;;;11.53;7.17;;;;;;;;;;5136639;27;20473;-71
2022/01/22 08:59:10;;;;;;;10.77;6.97;;;;;;;;;;5137092;27;20938;-71
2022/01/22 09:01:38;;;;;;;9.50;6.23;;;;;;;;;;5136846;27;20452;-71
2022/01/22 09:04:06;;;;;;;12.40;7.57;;;;;;;;;;5136699;27;20452;-71
2022/01/22 09:06:33;;;;;;;8.87;5.03;;;;;;;;;;5136816;27;20548;-71
2022/01/22 09:09:08;;;;;;;11.30;7.03;;;;;;;;;;5136881;27;20493;-71
2022/01/22 09:11:35;;;;;;;12.27;7.20;;;;;;;;;;5136995;27;20449;-71
2022/01/22 09:14:04;;;;;;;8.50;5.33;;;;;;;;;;5136690;27;20449;-71
2022/01/22 09:16:32;;;;;;;10.43;6.60;;;;;;;;;;5136760;27;20471;-71
2022/01/22 09:19:05;;;;;;;9.00;6.57;;;;;;;;;;5136877;27;20448;-72
2022/01/22 09:21:33;;;;;;;10.27;6.40;;;;;;;;;;5136155;27;20984;-72
2022/01/22 09:24:00;;;;;;;9.77;6.53;;;;;;;;;;5136423;27;20459;-71
2022/01/22 09:26:27;;;;;;;12.47;7.20;;;;;;;;;;5136409;27;20969;-73
2022/01/22 09:28:55;;;;;;;8.47;6.17;;;;;;;;;;5136484;27;20814;-73
2022/01/22 09:31:23;;;;;;;12.63;8.20;;;;;;;;;;5136349;27;20855;-73
2022/01/22 09:33:51;;;;;;;13.63;7.40;;;;;;;;;;5136154;27;20455;-73
2022/01/22 09:36:18;;;;;;;10.97;7.00;;;;;;;;;;5136184;27;20560;-74
2022/01/22 09:38:45;;;;;;;13.73;8.20;;;;;;;;;;5136693;27;20444;-73
2022/01/22 09:41:12;;;;;;;12.90;6.33;;;;;;;;;;5136448;27;20456;-74
2022/01/22 09:43:39;;;;;;;8.67;6.20;;;;;;;;;;5136021;27;20453;-74
2022/01/22 09:46:07;;;;;;;12.33;7.63;;;;;;;;;;5136614;27;20491;-75
2022/01/22 09:48:34;;;;;;;12.30;8.33;;;;;;;;;;5136226;27;20455;-74
2022/01/22 09:51:03;;;;;;;8.40;6.33;;;;;;;;;;5136619;27;20461;-74
2022/01/22 09:53:30;;;;;;;11.60;7.00;;;;;;;;;;5135789;27;20449;-75
2022/01/22 09:55:57;;;;;;;6.13;4.73;;;;;;;;;;5135639;27;20472;-74
2022/01/22 09:58:24;;;;;;;12.87;7.67;;;;;;;;;;5160004;27;20462;-74
2022/01/22 10:00:52;;;;;;;12.97;8.87;;;;;;;;;;5176311;27;20455;-75
2022/01/22 10:03:19;;;;;;;11.80;8.30;;;;;;;;;;5176640;27;20815;-75
2022/01/22 10:05:47;;;;;;;9.87;6.70;;;;;;;;;;5176185;27;20490;-74
2022/01/22 10:08:27;;;;;;;9.03;6.27;;;;;;;;;;5176180;27;20446;-72
2022/01/22 10:10:54;;;;;;;10.97;7.80;;;;;;;;;;5175764;27;20441;-71
2022/01/22 10:13:38;;;;;;;9.43;5.87;;;;;;;;;;5175658;27;20969;-70
2022/01/22 10:16:12;;;;;;;11.57;7.27;;;;;;;;;;5175598;27;20515;-70
2022/01/22 10:18:39;;;;;;;10.53;7.70;;;;;;;;;;5175583;27;20438;-70
2022/01/22 10:21:08;;;;;;;14.50;8.30;;;;;;;;;;5175470;27;20442;-70
2022/01/22 10:23:39;;;;;;;10.73;7.50;;;;;;;;;;5175363;27;20529;-70
2022/01/22 10:26:09;;;;;;;16.93;6.70;;;;;;;;;;5174853;27;20497;-70
2022/01/22 10:28:40;;;;;;;15.30;9.40;;;;;;;;;;5175143;27;20824;-70
2022/01/22 10:31:17;;;;;;;9.80;6.17;;;;;;;;;;5175563;27;20518;-70
2022/01/22 10:33:44;;;;;;;10.23;7.47;;;;;;;;;;5175210;27;20973;-69
2022/01/22 10:36:19;;;;;;;11.53;8.20;;;;;;;;;;5175116;27;20463;-70
2022/01/22 10:38:48;;;;;;;11.20;7.23;;;;;;;;;;5175395;27;20447;-70
2022/01/22 10:41:17;;;;;;;14.90;8.83;;;;;;;;;;5175391;27;20935;-70
2022/01/22 10:43:52;;;;;;;11.40;7.50;;;;;;;;;;5174924;27;20438;-70
2022/01/22 10:46:21;;;;;;;10.90;7.60;;;;;;;;;;5175032;27;20521;-70
2022/01/22 10:48:56;;;;;;;10.10;6.70;;;;;;;;;;5174729;27;20969;-70
2022/01/22 10:51:23;;;;;;;12.03;7.33;;;;;;;;;;5175221;27;20864;-70
2022/01/22 10:53:52;;;;;;;16.97;8.80;;;;;;;;;;5174768;27;20912;-71
2022/01/22 10:56:21;;;;;;;13.97;8.97;;;;;;;;;;5175029;27;20494;-71
2022/01/22 10:58:53;;;;;;;12.93;8.90;;;;;;;;;;5174688;27;20546;-71
2022/01/22 11:01:20;;;;;;;15.33;10.13;;;;;;;;;;5174836;27;20459;-70
2022/01/22 11:03:48;;;;;;;8.40;6.77;;;;;;;;;;5174376;27;20973;-70
2022/01/22 11:06:26;;;;;;;23.60;12.10;;;;;;;;;;5175773;27;21001;-70
2022/01/22 11:08:55;;;;;;;15.27;10.83;;;;;;;;;;5176116;27;20434;-71
2022/01/22 11:11:24;;;;;;;22.10;11.83;;;;;;;;;;5175658;27;20465;-71
2022/01/22 11:13:51;;;;;;;10.10;7.40;;;;;;;;;;5175502;27;20446;-71
2022/01/22 11:16:19;;;;;;;28.40;14.73;;;;;;;;;;5175548;27;20463;-71
2022/01/22 11:18:48;;;;;;;15.43;10.27;;;;;;;;;;5175899;27;20447;-71
2022/01/22 11:21:16;;;;;;;28.50;17.50;;;;;;;;;;5175940;27;20451;-71
2022/01/22 11:23:44;;;;;;;24.03;12.50;;;;;;;;;;5175738;27;20449;-70
2022/01/22 11:26:13;;;;;;;17.67;10.80;;;;;;;;;;5175547;27;20486;-71
2022/01/22 11:28:41;;;;;;;17.50;11.63;;;;;;;;;;5175951;27;20939;-71
2022/01/22 11:31:10;;;;;;;16.00;9.80;;;;;;;;;;5175653;27;20838;-71
2022/01/22 11:33:40;;;;;;;12.00;9.50;;;;;;;;;;5175548;27;20987;-71
2022/01/22 11:36:10;;;;;;;12.57;8.37;;;;;;;;;;5175617;27;20831;-71
2022/01/22 11:38:39;;;;;;;10.10;6.40;;;;;;;;;;5175610;27;20451;-71
2022/01/22 11:41:07;;;;;;;11.30;7.70;;;;;;;;;;5175416;27;20490;-70
2022/01/22 11:43:59;;;;;;;9.73;8.27;;;;;;;;;;5175258;27;20919;-70
2022/01/22 11:46:30;;;;;;;11.00;7.47;;;;;;;;;;5175392;27;20982;-71
2022/01/22 11:49:26;;;;;;;15.10;7.90;;;;;;;;;;5175588;27;20943;-71
2022/01/22 11:51:54;;;;;;;13.83;6.97;;;;;;;;;;5127383;27;21031;-70
2022/01/22 11:54:22;;;;;;;19.63;9.00;;;;;;;;;;5175207;27;20816;-70
2022/01/22 11:56:50;;;;;;;12.77;9.07;;;;;;;;;;5175240;27;20458;-71
2022/01/22 11:59:35;;;;;;;11.93;7.63;;;;;;;;;;5175378;27;20443;-71
2022/01/22 12:02:07;;;;;;;14.63;8.97;;;;;;;;;;5175332;27;20451;-71
2022/01/22 12:05:02;;;;;;;13.23;8.90;;;;;;;;;;5171971;27;20453;-71
2022/01/22 12:07:35;;;;;;;12.90;9.00;;;;;;;;;;5174075;27;20496;-71
2022/01/22 12:10:32;;;;;;;13.03;8.80;;;;;;;;;;5173899;27;20461;-71
2022/01/22 12:15:58;;;;;;;11.57;6.60;;;;;;;;;;5173789;27;20430;-71
2022/01/22 12:18:38;;;;;;;15.00;8.40;;;;;;;;;;5173738;27;20450;-71
2022/01/22 12:23:54;;;;;;;10.80;7.93;;;;;;;;;;5173717;27;20805;-71
2022/01/22 12:26:41;;;;;;;15.67;7.53;;;;;;;;;;5175326;27;20482;-71
2022/01/22 12:29:23;;;;;;;12.10;7.73;;;;;;;;;;5178086;27;20469;-71
2022/01/22 12:32:05;;;;;;;8.90;6.50;;;;;;;;;;5177545;27;20547;-71
2022/01/22 12:34:46;;;;;;;11.40;7.03;;;;;;;;;;5178090;27;20448;-71
2022/01/22 12:37:20;;;;;;;8.30;6.37;;;;;;;;;;5177252;27;20836;-71
2022/01/22 12:39:50;;;;;;;11.37;7.77;;;;;;;;;;5177422;27;20872;-71
2022/01/22 12:42:25;;;;;;;11.73;8.27;;;;;;;;;;5177685;27;20494;-71
2022/01/22 12:44:58;;;;;;;11.50;7.63;;;;;;;;;;5177651;27;20449;-71
2022/01/22 12:47:26;;;;;;;11.40;6.90;;;;;;;;;;5177883;27;20493;-71
2022/01/22 12:49:59;;;;;;;18.37;8.90;;;;;;;;;;5177384;27;20813;-71
2022/01/22 12:52:29;;;;;;;19.90;10.13;;;;;;;;;;5177525;27;20931;-71
2022/01/22 12:54:59;;;;;;;13.23;8.20;;;;;;;;;;5177062;27;20441;-71
2022/01/22 12:57:28;;;;;;;9.93;7.63;;;;;;;;;;5177459;27;20443;-71
2022/01/22 13:00:01;;;;;;;13.50;8.80;;;;;;;;;;5177322;27;20465;-71
2022/01/22 13:02:36;;;;;;;13.80;8.07;;;;;;;;;;5177346;27;20446;-71
2022/01/22 13:05:04;;;;;;;10.57;7.60;;;;;;;;;;5176883;27;20434;-71
2022/01/22 13:07:39;;;;;;;12.07;7.93;;;;;;;;;;5177057;27;20482;-71
2022/01/22 13:10:08;;;;;;;13.27;9.07;;;;;;;;;;5177145;27;20453;-71
2022/01/22 13:12:36;;;;;;;12.40;7.90;;;;;;;;;;5177265;27;20486;-71
2022/01/22 13:15:03;;;;;;;32.17;17.10;;;;;;;;;;5176904;27;20443;-71
2022/01/22 13:17:31;;;;;;;20.60;11.93;;;;;;;;;;5176734;27;20445;-71
2022/01/22 13:19:59;;;;;;;14.97;10.13;;;;;;;;;;5177059;27;20446;-71
2022/01/22 13:22:31;;;;;;;17.43;9.57;;;;;;;;;;5176952;27;20457;-71
2022/01/22 13:25:07;;;;;;;20.03;11.80;;;;;;;;;;5176579;27;20827;-71
2022/01/22 13:27:34;;;;;;;17.43;9.63;;;;;;;;;;5176678;27;20486;-71
2022/01/22 13:30:01;;;;;;;13.73;8.97;;;;;;;;;;5176834;27;20443;-71
2022/01/22 13:32:42;;;;;;;13.50;8.00;;;;;;;;;;5176460;27;20515;-71
2022/01/22 13:35:21;;;;;;;13.33;7.50;;;;;;;;;;5176675;27;20450;-71
2022/01/22 13:49:12;;;;;;;12.83;9.00;;;;;;;;;;5109610;28;20463;-70
2022/01/22 13:51:40;;;;;;;12.07;8.50;;;;;;;;;;5110141;28;20453;-70
2022/01/22 13:54:07;;;;;;;16.80;9.87;;;;;;;;;;5110647;28;20441;-70
2022/01/22 13:56:49;;;;;;;16.30;9.87;;;;;;;;;;5110281;28;20496;-69
2022/01/22 13:59:17;;;;;;;14.07;9.53;;;;;;;;;;5110669;28;20481;-70
2022/01/22 14:01:51;;;;;;;12.53;8.70;;;;;;;;;;5110464;28;20453;-70
2022/01/22 14:04:19;;;;;;;19.93;7.90;;;;;;;;;;5110442;28;20489;-70
2022/01/22 14:06:47;;;;;;;13.93;9.70;;;;;;;;;;5110314;28;20991;-70
2022/01/22 14:09:15;;;;;;;20.67;11.20;;;;;;;;;;5110655;28;20446;-70
2022/01/22 14:11:57;;;;;;;21.30;12.57;;;;;;;;;;5110435;28;20438;-70
2022/01/22 14:14:26;;;;;;;12.90;8.00;;;;;;;;;;5107930;28;20462;-70
2022/01/22 14:17:09;;;;;;;15.87;9.60;;;;;;;;;;5110133;28;20468;-70
2022/01/22 14:19:36;;;;;;;14.43;9.50;;;;;;;;;;5110042;28;20901;-69
2022/01/22 14:22:03;;;;;;;19.20;11.77;;;;;;;;;;5110317;28;20449;-69
2022/01/22 14:24:31;;;;;;;19.47;10.60;;;;;;;;;;5108931;28;20461;-70
2022/01/22 14:26:58;;;;;;;14.57;9.90;;;;;;;;;;5109958;28;20473;-70
2022/01/22 14:29:26;;;;;;;20.73;11.40;;;;;;;;;;5110079;28;20450;-70
2022/01/22 14:31:57;;;;;;;22.70;15.03;;;;;;;;;;5109717;28;20470;-70
2022/01/22 14:34:32;;;;;;;19.10;11.03;;;;;;;;;;5109727;28;21007;-70
2022/01/22 14:36:59;;;;;;;16.97;10.30;;;;;;;;;;5109979;28;20462;-70
2022/01/22 14:43:54;;;;;;;18.30;11.20;;;;;;;;;;5109621;28;20995;-70
2022/01/22 14:45:12;;;;;;;18.40;11.97;;;;;;;;;;5109552;28;20437;-69
2022/01/22 14:47:39;;;;;;;15.53;10.70;;;;;;;;;;5109775;28;20461;-70
2022/01/22 14:50:07;;;;;;;15.53;9.57;;;;;;;;;;5108622;28;20442;-70
2022/01/22 14:52:34;;;;;;;17.93;10.63;;;;;;;;;;5095715;28;20442;-70
2022/01/22 14:55:03;;;;;;;25.03;12.63;;;;;;;;;;5095760;28;20458;-70
2022/01/22 14:57:31;;;;;;;32.10;14.37;;;;;;;;;;5095995;28;20498;-69
2022/01/22 15:00:02;;;;;;;31.57;15.00;;;;;;;;;;5095885;28;20478;-69
2022/01/22 15:02:31;;;;;;;32.37;16.53;;;;;;;;;;5093674;28;20455;-69
2022/01/22 15:04:58;;;;;;;58.87;24.60;;;;;;;;;;5078586;28;20932;-69
2022/01/22 15:07:25;;;;;;;31.50;15.93;;;;;;;;;;5075228;28;20468;-70
2022/01/22 15:09:53;;;;;;;23.10;12.47;;;;;;;;;;5075384;28;20463;-75
2022/01/22 15:12:20;;;;;;;99.40;45.50;;;;;;;;;;5075439;28;20451;-76
2022/01/22 15:14:50;;;;;;;40.60;23.97;;;;;;;;;;5075098;28;20826;-75
2022/01/22 15:20:09;;;;;;;28.77;15.53;;;;;;;;;;5064263;28;20487;-75
2022/01/22 15:22:36;;;;;;;29.80;16.47;;;;;;;;;;5075208;28;20478;-75
2022/01/22 15:25:04;;;;;;;25.00;12.80;;;;;;;;;;5074688;28;20451;-76
2022/01/22 15:27:31;;;;;;;18.93;11.70;;;;;;;;;;5075268;28;20463;-75
2022/01/22 15:30:10;;;;;;;18.73;11.03;;;;;;;;;;5074988;28;20514;-71
2022/01/22 15:32:45;;;;;;;17.63;12.77;;;;;;;;;;5074914;28;20459;-76
2022/01/22 15:35:15;;;;;;;25.93;13.77;;;;;;;;;;5074954;28;20448;-70
2022/01/22 15:37:47;;;;;;;19.63;11.40;;;;;;;;;;5075059;28;20929;-70
2022/01/22 15:40:15;;;;;;;20.63;11.70;;;;;;;;;;5075027;28;20482;-71
2022/01/22 15:42:42;;;;;;;18.57;11.30;;;;;;;;;;5074645;28;20967;-72
2022/01/22 15:45:09;;;;;;;15.23;10.17;;;;;;;;;;5074793;28;20448;-72
2022/01/22 15:47:36;;;;;;;20.47;9.73;;;;;;;;;;5074694;28;20831;-71
2022/01/22 15:50:05;;;;;;;18.83;10.30;;;;;;;;;;5075009;28;20443;-71
2022/01/22 15:52:33;;;;;;;17.67;9.83;;;;;;;;;;5074524;28;20888;-71
2022/01/22 15:55:01;;;;;;;14.20;9.50;;;;;;;;;;5074307;28;20459;-71
2022/01/22 15:57:28;;;;;;;17.57;11.80;;;;;;;;;;5074427;28;20451;-71
2022/01/22 15:59:55;;;;;;;29.40;13.00;;;;;;;;;;5074303;28;20526;-71
2022/01/22 16:02:22;;;;;;;16.93;10.83;;;;;;;;;;5073577;28;20451;-71
2022/01/22 16:04:51;;;;;;;25.50;11.10;;;;;;;;;;5074109;28;20456;-71
2022/01/22 16:07:21;;;;;;;21.00;11.17;;;;;;;;;;5074346;28;20458;-71
2022/01/22 16:09:50;;;;;;;13.70;10.53;;;;;;;;;;5074038;28;20463;-71
2022/01/22 16:12:18;;;;;;;20.33;11.10;;;;;;;;;;5074356;28;20538;-71
2022/01/22 16:14:45;;;;;;;16.80;8.70;;;;;;;;;;5073909;28;20475;-71
2022/01/22 16:17:15;;;;;;;19.10;10.57;;;;;;;;;;5074098;28;20476;-71
2022/01/22 16:19:43;;;;;;;23.07;11.77;;;;;;;;;;5073870;28;20483;-70